createdAt,value
2017-05-12T00:00:10.344Z,0
2017-05-12T00:00:50.787Z,0
2017-05-12T00:01:31.539Z,0
2017-05-12T00:02:11.847Z,0
2017-05-12T00:02:52.388Z,0
2017-05-12T00:03:32.884Z,0
2017-05-12T00:04:13.452Z,0
2017-05-12T00:04:54.031Z,0
2017-05-12T00:05:34.582Z,0
2017-05-12T00:06:15.080Z,0
2017-05-12T00:06:55.558Z,0
2017-05-12T00:07:35.961Z,0
2017-05-12T00:08:16.571Z,0
2017-05-12T00:08:57.050Z,0
2017-05-12T00:09:37.635Z,0
2017-05-12T00:10:18.110Z,0
2017-05-12T00:10:58.576Z,0
2017-05-12T00:11:39.100Z,0
2017-05-12T00:12:19.581Z,0
2017-05-12T00:12:59.995Z,0
2017-05-12T00:13:40.551Z,0
2017-05-12T00:14:21.010Z,0
2017-05-12T00:15:01.599Z,0
2017-05-12T00:15:42.315Z,0
2017-05-12T00:16:22.971Z,0
2017-05-12T00:17:03.564Z,0
2017-05-12T00:17:44.037Z,0
2017-05-12T00:18:24.481Z,0
2017-05-12T00:19:04.934Z,0
2017-05-12T00:19:45.603Z,0
2017-05-12T00:20:26.075Z,0
2017-05-12T00:21:06.554Z,0
2017-05-12T00:21:47.202Z,0
2017-05-12T00:22:27.624Z,0
2017-05-12T00:23:08.166Z,0
2017-05-12T00:23:48.623Z,0
2017-05-12T00:24:29.130Z,0
2017-05-12T00:25:09.713Z,0
2017-05-12T00:25:50.241Z,0
2017-05-12T00:26:30.690Z,0
2017-05-12T00:27:11.239Z,0
2017-05-12T00:27:51.750Z,0
2017-05-12T00:28:32.246Z,0
2017-05-12T00:29:12.733Z,0
2017-05-12T00:29:53.248Z,0
2017-05-12T00:30:33.716Z,0
2017-05-12T00:31:14.246Z,0
2017-05-12T00:31:54.732Z,0
2017-05-12T00:32:35.155Z,0
2017-05-12T00:33:15.746Z,0
2017-05-12T00:33:56.253Z,0
2017-05-12T00:34:36.836Z,0
2017-05-12T00:35:17.336Z,0
2017-05-12T00:35:57.843Z,0
2017-05-12T00:36:38.338Z,0
2017-05-12T00:37:18.814Z,0
2017-05-12T00:37:59.263Z,0
2017-05-12T00:38:39.795Z,0
2017-05-12T00:39:20.280Z,0
2017-05-12T00:40:00.729Z,0
2017-05-12T00:40:41.241Z,0
2017-05-12T00:41:21.895Z,0
2017-05-12T00:42:02.486Z,0
2017-05-12T00:42:42.946Z,0
2017-05-12T00:43:23.477Z,0
2017-05-12T00:44:04.542Z,0
2017-05-12T00:46:42.542Z,0
2017-05-12T00:47:24.583Z,0
2017-05-12T00:48:07.437Z,0
2017-05-12T00:48:48.096Z,0
2017-05-12T00:49:28.629Z,0
2017-05-12T00:50:09.217Z,0
2017-05-12T00:50:49.780Z,0
2017-05-12T00:51:30.486Z,0
2017-05-12T00:52:10.953Z,0
2017-05-12T00:52:51.434Z,0
2017-05-12T00:53:31.929Z,0
2017-05-12T00:54:12.460Z,0
2017-05-12T00:55:02.708Z,0
2017-05-12T00:55:43.197Z,0
2017-05-12T00:56:23.672Z,0
2017-05-12T00:57:04.197Z,0
2017-05-12T00:57:44.692Z,0
2017-05-12T00:58:25.230Z,0
2017-05-12T00:59:05.875Z,0
2017-05-12T00:59:46.296Z,0
2017-05-12T01:00:26.793Z,0
2017-05-12T01:01:07.269Z,0
2017-05-12T01:01:47.752Z,0
2017-05-12T01:02:28.254Z,0
2017-05-12T01:03:17.774Z,0
2017-05-12T01:04:19.997Z,0
2017-05-12T01:11:34.763Z,0
2017-05-12T01:15:15.326Z,0
2017-05-12T01:17:38.694Z,0
2017-05-12T01:18:30.979Z,0
2017-05-12T01:19:13.156Z,0
2017-05-12T01:21:47.661Z,0
2017-05-12T01:22:28.456Z,0
2017-05-12T01:23:08.913Z,0
2017-05-12T01:23:49.399Z,0
2017-05-12T01:24:29.881Z,0
2017-05-12T01:25:10.357Z,0
2017-05-12T01:25:50.780Z,0
2017-05-12T01:26:31.315Z,0
2017-05-12T01:27:11.828Z,0
2017-05-12T01:27:52.346Z,0
2017-05-12T01:28:32.840Z,0
2017-05-12T01:29:13.303Z,0
2017-05-12T01:29:53.792Z,0
2017-05-12T01:30:34.281Z,0
2017-05-12T01:31:14.760Z,0
2017-05-12T01:31:55.299Z,0
2017-05-12T01:32:35.761Z,0
2017-05-12T01:33:16.256Z,0
2017-05-12T01:33:56.761Z,0
2017-05-12T01:34:37.226Z,0
2017-05-12T01:35:17.750Z,0
2017-05-12T01:35:58.274Z,0
2017-05-12T01:36:38.790Z,0
2017-05-12T01:37:19.325Z,0
2017-05-12T01:37:59.828Z,0
2017-05-12T01:38:40.371Z,0
2017-05-12T01:39:20.826Z,0
2017-05-12T01:40:01.330Z,0
2017-05-12T01:40:41.774Z,0
2017-05-12T01:41:22.280Z,0
2017-05-12T01:42:02.784Z,0
2017-05-12T01:42:43.266Z,0
2017-05-12T01:43:23.826Z,0
2017-05-12T01:44:04.335Z,0
2017-05-12T01:44:44.840Z,0
2017-05-12T01:45:25.349Z,0
2017-05-12T01:46:05.792Z,0
2017-05-12T01:46:46.267Z,0
2017-05-12T01:47:26.812Z,0
2017-05-12T01:48:07.286Z,0
2017-05-12T01:48:47.774Z,0
2017-05-12T01:49:28.319Z,0
2017-05-12T01:50:09.264Z,0
2017-05-12T01:50:49.503Z,0
2017-05-12T01:51:29.927Z,0
2017-05-12T01:52:10.376Z,0
2017-05-12T01:52:50.894Z,0
2017-05-12T01:53:31.360Z,0
2017-05-12T01:54:11.833Z,0
2017-05-12T01:54:52.315Z,0
2017-05-12T01:55:32.867Z,0
2017-05-12T01:56:13.301Z,0
2017-05-12T01:56:53.767Z,0
2017-05-12T01:57:34.264Z,0
2017-05-12T01:58:14.762Z,0
2017-05-12T01:58:55.248Z,0
2017-05-12T01:59:35.727Z,0
2017-05-12T02:00:16.218Z,0
2017-05-12T02:00:56.734Z,0
2017-05-12T02:01:37.222Z,0
2017-05-12T02:02:17.721Z,0
2017-05-12T02:02:58.218Z,0
2017-05-12T02:03:38.689Z,0
2017-05-12T02:04:19.174Z,0
2017-05-12T02:04:59.675Z,0
2017-05-12T02:05:40.176Z,0
2017-05-12T02:06:20.626Z,0
2017-05-12T02:07:01.104Z,0
2017-05-12T02:07:41.578Z,0
2017-05-12T02:08:22.093Z,0
2017-05-12T02:09:02.606Z,0
2017-05-12T02:09:43.078Z,0
2017-05-12T02:10:23.566Z,0
2017-05-12T02:11:04.195Z,0
2017-05-12T02:11:44.703Z,0
2017-05-12T02:12:25.178Z,0
2017-05-12T02:13:05.674Z,0
2017-05-12T02:13:46.159Z,0
2017-05-12T02:14:26.663Z,0
2017-05-12T02:15:08.165Z,0
2017-05-12T02:15:48.647Z,0
2017-05-12T02:16:29.165Z,0
2017-05-12T02:17:09.655Z,0
2017-05-12T02:17:50.192Z,0
2017-05-12T02:18:30.648Z,0
2017-05-12T02:19:11.096Z,0
2017-05-12T02:19:51.570Z,0
2017-05-12T02:20:32.086Z,0
2017-05-12T02:21:12.660Z,0
2017-05-12T02:21:53.160Z,0
2017-05-12T02:22:33.624Z,0
2017-05-12T02:23:14.984Z,0
2017-05-12T02:23:55.443Z,0
2017-05-12T02:24:35.977Z,0
2017-05-12T02:25:16.461Z,0
2017-05-12T02:25:56.937Z,0
2017-05-12T02:26:37.451Z,0
2017-05-12T02:27:18.030Z,0
2017-05-12T02:27:58.360Z,0
2017-05-12T02:28:38.999Z,0
2017-05-12T02:29:19.390Z,0
2017-05-12T02:29:59.979Z,0
2017-05-12T02:30:40.369Z,0
2017-05-12T02:31:20.910Z,0
2017-05-12T02:32:01.378Z,0
2017-05-12T02:32:41.845Z,0
2017-05-12T02:33:22.377Z,0
2017-05-12T02:34:02.853Z,0
2017-05-12T02:34:43.380Z,0
2017-05-12T02:35:23.860Z,0
2017-05-12T02:36:04.323Z,0
2017-05-12T02:36:44.843Z,0
2017-05-12T02:37:25.319Z,0
2017-05-12T02:38:05.784Z,0
2017-05-12T02:38:46.295Z,0
2017-05-12T02:39:26.801Z,0
2017-05-12T02:40:07.337Z,0
2017-05-12T02:40:47.820Z,0
2017-05-12T02:41:28.325Z,0
2017-05-12T02:42:08.820Z,0
2017-05-12T02:42:49.304Z,0
2017-05-12T02:43:29.807Z,0
2017-05-12T02:44:10.250Z,0
2017-05-12T02:44:50.694Z,0
2017-05-12T02:45:31.303Z,0
2017-05-12T02:46:11.845Z,0
2017-05-12T02:46:52.374Z,0
2017-05-12T02:47:32.809Z,0
2017-05-12T02:48:13.291Z,0
2017-05-12T02:48:53.799Z,0
2017-05-12T02:49:34.346Z,0
2017-05-12T02:50:14.812Z,0
2017-05-12T02:50:55.328Z,0
2017-05-12T02:51:35.749Z,0
2017-05-12T02:52:16.237Z,0
2017-05-12T02:52:56.788Z,0
2017-05-12T02:53:37.239Z,0
2017-05-12T02:54:17.743Z,0
2017-05-12T02:54:58.286Z,0
2017-05-12T02:55:38.695Z,0
2017-05-12T02:56:19.211Z,0
2017-05-12T02:56:59.732Z,0
2017-05-12T02:57:40.235Z,0
2017-05-12T02:58:20.730Z,0
2017-05-12T02:59:01.215Z,0
2017-05-12T02:59:41.745Z,0
2017-05-12T03:00:22.192Z,0
2017-05-12T03:01:02.745Z,0
2017-05-12T03:01:43.275Z,0
2017-05-12T03:02:23.711Z,0
2017-05-12T03:03:04.165Z,0
2017-05-12T03:03:44.743Z,0
2017-05-12T03:04:25.241Z,0
2017-05-12T03:05:05.707Z,0
2017-05-12T03:05:46.190Z,0
2017-05-12T03:06:26.693Z,0
2017-05-12T03:07:07.185Z,0
2017-05-12T03:07:47.724Z,0
2017-05-12T03:08:28.193Z,0
2017-05-12T03:09:08.736Z,0
2017-05-12T03:09:49.236Z,0
2017-05-12T03:10:29.940Z,0
2017-05-12T03:11:10.522Z,0
2017-05-12T03:11:50.998Z,0
2017-05-12T03:12:31.482Z,0
2017-05-12T03:13:11.982Z,0
2017-05-12T03:13:52.474Z,0
2017-05-12T03:14:33.030Z,0
2017-05-12T03:15:13.533Z,0
2017-05-12T03:15:53.972Z,0
2017-05-12T03:16:34.570Z,0
2017-05-12T03:17:15.018Z,0
2017-05-12T03:17:55.525Z,0
2017-05-12T03:18:35.995Z,0
2017-05-12T03:19:16.522Z,0
2017-05-12T03:19:57.006Z,0
2017-05-12T03:20:37.686Z,0
2017-05-12T03:21:18.164Z,0
2017-05-12T03:21:58.798Z,0
2017-05-12T03:22:39.417Z,0
2017-05-12T03:23:19.803Z,0
2017-05-12T03:24:00.401Z,0
2017-05-12T03:24:40.805Z,0
2017-05-12T03:25:21.260Z,0
2017-05-12T03:26:01.816Z,0
2017-05-12T03:26:42.270Z,4
2017-05-12T03:27:22.800Z,4
2017-05-12T03:28:03.251Z,4
2017-05-12T03:28:43.816Z,0
2017-05-12T03:29:24.400Z,0
2017-05-12T03:30:04.813Z,4
2017-05-12T03:30:45.355Z,4
2017-05-12T03:31:25.794Z,4
2017-05-12T03:32:06.346Z,4
2017-05-12T03:32:46.850Z,8
2017-05-12T03:33:27.292Z,4
2017-05-12T03:34:07.777Z,4
2017-05-12T03:34:48.332Z,4
2017-05-12T03:35:28.838Z,8
2017-05-12T03:36:09.345Z,8
2017-05-12T03:36:49.755Z,8
2017-05-12T03:37:30.264Z,8
2017-05-12T03:38:10.769Z,8
2017-05-12T03:38:51.275Z,8
2017-05-12T03:39:31.723Z,8
2017-05-12T03:40:12.292Z,12
2017-05-12T03:40:52.787Z,8
2017-05-12T03:41:33.274Z,8
2017-05-12T03:42:13.756Z,12
2017-05-12T03:42:54.231Z,12
2017-05-12T03:43:34.748Z,12
2017-05-12T03:44:15.191Z,16
2017-05-12T03:44:55.733Z,12
2017-05-12T03:45:36.172Z,12
2017-05-12T03:46:16.694Z,12
2017-05-12T03:46:57.166Z,16
2017-05-12T03:47:37.651Z,16
2017-05-12T03:48:18.852Z,16
2017-05-12T03:48:58.667Z,16
2017-05-12T03:49:39.234Z,16
2017-05-12T03:50:19.659Z,12
2017-05-12T03:51:00.144Z,12
2017-05-12T03:51:40.655Z,16
2017-05-12T03:52:21.170Z,16
2017-05-12T03:53:01.581Z,20
2017-05-12T03:53:42.134Z,24
2017-05-12T03:54:22.549Z,28
2017-05-12T03:55:03.069Z,28
2017-05-12T03:55:43.690Z,28
2017-05-12T03:56:24.171Z,32
2017-05-12T03:57:04.688Z,32
2017-05-12T03:57:45.201Z,32
2017-05-12T03:58:25.672Z,32
2017-05-12T03:59:06.389Z,32
2017-05-12T03:59:46.929Z,36
2017-05-12T04:00:27.374Z,40
2017-05-12T04:01:07.957Z,40
2017-05-12T04:01:48.548Z,44
2017-05-12T04:02:29.071Z,44
2017-05-12T04:03:09.549Z,48
2017-05-12T04:03:50.113Z,44
2017-05-12T04:04:30.628Z,48
2017-05-12T04:05:11.083Z,52
2017-05-12T04:05:51.567Z,52
2017-05-12T04:06:32.037Z,52
2017-05-12T04:08:50.415Z,52
2017-05-12T04:09:31.287Z,52
2017-05-12T04:10:11.756Z,56
2017-05-12T04:10:52.178Z,60
2017-05-12T04:11:32.805Z,68
2017-05-12T04:12:13.160Z,84
2017-05-12T04:12:53.764Z,100
2017-05-12T04:13:34.212Z,116
2017-05-12T04:14:14.810Z,136
2017-05-12T04:14:55.414Z,160
2017-05-12T04:15:36.108Z,180
2017-05-12T04:16:16.614Z,200
2017-05-12T04:16:57.175Z,224
2017-05-12T04:17:37.676Z,240
2017-05-12T04:18:18.155Z,248
2017-05-12T04:18:58.637Z,256
2017-05-12T04:19:39.178Z,272
2017-05-12T04:20:19.819Z,280
2017-05-12T04:21:00.259Z,292
2017-05-12T04:21:40.802Z,308
2017-05-12T04:22:21.323Z,316
2017-05-12T04:23:01.778Z,324
2017-05-12T04:23:42.278Z,328
2017-05-12T04:24:22.782Z,336
2017-05-12T04:25:03.258Z,348
2017-05-12T04:25:43.751Z,348
2017-05-12T04:26:24.246Z,344
2017-05-12T04:27:04.703Z,356
2017-05-12T04:27:45.243Z,376
2017-05-12T04:28:25.696Z,392
2017-05-12T04:29:06.451Z,396
2017-05-12T04:29:46.853Z,400
2017-05-12T04:30:27.459Z,408
2017-05-12T04:31:07.961Z,412
2017-05-12T04:31:48.480Z,416
2017-05-12T04:35:53.344Z,560
2017-05-12T04:36:33.800Z,600
2017-05-12T04:37:14.323Z,628
2017-05-12T04:37:54.807Z,640
2017-05-12T04:38:35.327Z,644
2017-05-12T04:39:15.786Z,640
2017-05-12T04:39:56.234Z,624
2017-05-12T04:40:36.754Z,624
2017-05-12T04:41:17.211Z,624
2017-05-12T04:42:02.362Z,628
2017-05-12T04:42:50.165Z,628
2017-05-12T04:46:49.235Z,792
2017-05-12T04:47:29.389Z,736
2017-05-12T04:48:10.012Z,708
2017-05-12T04:48:50.453Z,672
2017-05-12T04:49:30.999Z,644
2017-05-12T04:50:11.466Z,676
2017-05-12T04:50:51.976Z,740
2017-05-12T04:51:32.542Z,804
2017-05-12T04:52:13.049Z,800
2017-05-12T04:52:53.485Z,756
2017-05-12T04:53:34.583Z,724
2017-05-12T04:54:15.044Z,700
2017-05-12T04:54:55.479Z,684
2017-05-12T04:55:35.964Z,668
2017-05-12T04:56:17.434Z,652
2017-05-12T04:57:02.238Z,616
2017-05-12T05:00:43.576Z,500
2017-05-12T05:01:24.275Z,488
2017-05-12T05:02:04.825Z,492
2017-05-12T05:02:45.287Z,516
2017-05-12T05:06:44.207Z,724
2017-05-12T05:07:24.654Z,716
2017-05-12T05:08:05.180Z,724
2017-05-12T05:08:45.626Z,744
2017-05-12T05:09:26.156Z,764
2017-05-12T05:10:06.645Z,776
2017-05-12T05:10:47.115Z,776
2017-05-12T05:11:27.623Z,708
2017-05-12T05:12:08.126Z,624
2017-05-12T05:12:48.726Z,600
2017-05-12T05:13:29.104Z,620
2017-05-12T05:14:12.325Z,664
2017-05-12T05:14:52.746Z,696
2017-05-12T05:15:33.219Z,732
2017-05-12T05:16:13.743Z,772
2017-05-12T05:16:54.249Z,812
2017-05-12T05:17:34.724Z,848
2017-05-12T05:18:15.362Z,888
2017-05-12T05:18:55.825Z,936
2017-05-12T05:19:36.345Z,988
2017-05-12T05:20:16.767Z,1044
2017-05-12T05:20:57.289Z,1116
2017-05-12T05:21:37.790Z,1192
2017-05-12T05:22:18.305Z,1268
2017-05-12T05:22:58.938Z,1376
2017-05-12T05:23:39.308Z,1476
2017-05-12T05:24:19.865Z,1560
2017-05-12T05:25:00.327Z,1616
2017-05-12T05:25:40.931Z,1620
2017-05-12T05:26:21.452Z,1612
2017-05-12T05:27:01.846Z,1568
2017-05-12T05:27:42.356Z,1488
2017-05-12T05:28:22.867Z,1424
2017-05-12T05:29:03.383Z,1392
2017-05-12T05:29:43.960Z,1360
2017-05-12T05:30:24.436Z,1352
2017-05-12T05:31:04.933Z,1424
2017-05-12T05:31:45.364Z,1608
2017-05-12T05:32:26.139Z,1812
2017-05-12T05:33:06.519Z,1976
2017-05-12T05:33:47.192Z,2100
2017-05-12T05:34:27.735Z,2136
2017-05-12T05:35:08.523Z,2124
2017-05-12T05:35:49.118Z,2060
2017-05-12T05:36:29.537Z,1956
2017-05-12T05:37:10.013Z,1868
2017-05-12T05:37:50.528Z,1780
2017-05-12T05:38:31.023Z,1704
2017-05-12T05:39:12.124Z,1632
2017-05-12T05:39:52.751Z,1596
2017-05-12T05:40:33.340Z,1572
2017-05-12T05:41:13.894Z,1580
2017-05-12T05:41:57.529Z,1616
2017-05-12T05:42:39.133Z,1684
2017-05-12T05:43:19.747Z,1756
2017-05-12T05:44:00.661Z,1820
2017-05-12T05:44:41.344Z,1880
2017-05-12T05:45:22.780Z,1896
2017-05-12T05:46:03.431Z,1904
2017-05-12T05:46:44.203Z,1920
2017-05-12T05:47:24.642Z,1904
2017-05-12T05:48:05.544Z,1860
2017-05-12T05:48:46.041Z,1816
2017-05-12T05:49:26.783Z,1776
2017-05-12T05:50:07.372Z,1760
2017-05-12T05:50:47.844Z,1768
2017-05-12T05:51:28.286Z,1800
2017-05-12T05:52:08.792Z,1860
2017-05-12T05:52:49.282Z,1948
2017-05-12T05:56:56.793Z,2728
2017-05-12T05:57:39.499Z,2780
2017-05-12T05:58:19.901Z,2800
2017-05-12T05:59:00.470Z,2824
2017-05-12T05:59:40.941Z,2856
2017-05-12T06:00:21.378Z,2896
2017-05-12T06:01:02.083Z,2976
2017-05-12T06:01:42.618Z,3084
2017-05-12T06:02:23.101Z,3172
2017-05-12T06:03:03.841Z,3260
2017-05-12T06:03:44.317Z,3352
2017-05-12T06:04:24.849Z,3476
2017-05-12T06:05:05.517Z,3664
2017-05-12T06:05:46.022Z,3920
2017-05-12T06:06:26.745Z,4304
2017-05-12T06:07:07.616Z,4532
2017-05-12T06:09:47.313Z,5764
2017-05-12T06:10:30.098Z,6124
2017-05-12T06:11:10.412Z,6404
2017-05-12T06:11:50.885Z,6624
2017-05-12T06:12:31.530Z,6784
2017-05-12T06:13:12.022Z,6824
2017-05-12T06:13:52.482Z,6668
2017-05-12T06:14:33.031Z,6360
2017-05-12T06:15:13.483Z,5992
2017-05-12T06:15:54.045Z,5632
2017-05-12T06:16:34.657Z,5380
2017-05-12T06:17:15.105Z,5200
2017-05-12T06:17:55.712Z,5232
2017-05-12T06:18:36.209Z,5480
2017-05-12T06:19:16.812Z,5820
2017-05-12T06:19:57.206Z,6192
2017-05-12T06:20:37.745Z,6620
2017-05-12T06:21:18.202Z,7108
2017-05-12T06:21:58.976Z,7616
2017-05-12T06:22:42.056Z,8604
2017-05-12T06:23:21.501Z,9460
2017-05-12T06:24:02.261Z,9328
2017-05-12T06:24:42.782Z,9700
2017-05-12T06:25:23.737Z,9804
2017-05-12T06:26:04.309Z,10652
2017-05-12T06:26:45.134Z,9696
2017-05-12T06:27:26.039Z,9212
2017-05-12T06:28:06.431Z,9148
2017-05-12T06:28:48.084Z,9548
2017-05-12T06:29:29.122Z,9688
2017-05-12T06:30:09.668Z,9672
2017-05-12T06:30:50.149Z,9788
2017-05-12T06:31:30.670Z,9116
2017-05-12T06:32:11.186Z,9328
2017-05-12T06:32:51.664Z,9492
2017-05-12T06:33:32.177Z,8696
2017-05-12T06:34:13.071Z,9308
2017-05-12T06:34:53.621Z,11584
2017-05-12T06:35:34.267Z,11884
2017-05-12T06:36:14.770Z,9180
2017-05-12T06:36:55.274Z,10264
2017-05-12T06:37:35.782Z,9092
2017-05-12T06:38:16.572Z,8788
2017-05-12T06:38:57.455Z,8680
2017-05-12T06:39:39.365Z,8468
2017-05-12T06:40:23.909Z,8260
2017-05-12T06:41:04.515Z,8056
2017-05-12T06:41:44.961Z,7956
2017-05-12T06:42:25.732Z,7812
2017-05-12T06:43:06.289Z,7692
2017-05-12T06:43:46.798Z,7364
2017-05-12T06:44:27.264Z,6968
2017-05-12T06:45:07.905Z,6592
2017-05-12T06:45:48.393Z,6236
2017-05-12T06:46:28.921Z,6020
2017-05-12T06:47:09.521Z,5884
2017-05-12T06:47:50.060Z,5852
2017-05-12T06:48:30.604Z,5948
2017-05-12T06:49:11.547Z,6104
2017-05-12T06:49:52.496Z,6368
2017-05-12T06:50:32.960Z,6800
2017-05-12T06:51:13.645Z,7332
2017-05-12T06:51:54.495Z,7992
2017-05-12T06:52:34.725Z,8412
2017-05-12T06:53:15.170Z,8144
2017-05-12T06:53:56.242Z,8032
2017-05-12T06:54:40.466Z,9104
2017-05-12T06:55:21.614Z,7928
2017-05-12T06:56:02.207Z,7528
2017-05-12T06:56:42.783Z,7360
2017-05-12T06:57:23.594Z,7116
2017-05-12T06:58:04.094Z,7060
2017-05-12T06:58:44.885Z,7088
2017-05-12T06:59:25.294Z,7204
2017-05-12T07:00:05.879Z,7272
2017-05-12T07:00:46.570Z,7188
2017-05-12T07:01:27.089Z,7088
2017-05-12T07:02:07.614Z,6932
2017-05-12T07:02:48.163Z,6916
2017-05-12T07:03:28.713Z,6992
2017-05-12T07:04:09.351Z,7280
2017-05-12T07:04:50.225Z,7648
2017-05-12T07:05:31.040Z,7872
2017-05-12T07:06:12.178Z,9456
2017-05-12T07:06:52.506Z,11412
2017-05-12T07:07:33.090Z,9300
2017-05-12T07:08:13.590Z,11480
2017-05-12T07:08:54.122Z,12688
2017-05-12T07:09:34.786Z,10400
2017-05-12T07:10:15.962Z,10868
2017-05-12T07:11:00.208Z,10988
2017-05-12T07:11:42.596Z,9664
2017-05-12T07:12:23.033Z,8532
2017-05-12T07:13:03.881Z,8092
2017-05-12T07:13:44.396Z,7612
2017-05-12T07:14:24.830Z,7072
2017-05-12T07:15:05.629Z,6776
2017-05-12T07:15:46.073Z,6704
2017-05-12T07:16:26.618Z,6796
2017-05-12T07:17:07.126Z,7596
2017-05-12T07:17:47.718Z,8180
2017-05-12T07:18:28.200Z,7628
2017-05-12T07:19:08.716Z,8028
2017-05-12T07:19:49.252Z,9412
2017-05-12T07:20:29.730Z,9968
2017-05-12T07:21:10.597Z,9176
2017-05-12T07:21:51.221Z,8856
2017-05-12T07:22:31.678Z,8676
2017-05-12T07:23:12.241Z,8788
2017-05-12T07:23:52.758Z,8852
2017-05-12T07:24:33.391Z,8616
2017-05-12T07:25:13.866Z,8700
2017-05-12T07:25:54.367Z,8424
2017-05-12T07:26:34.871Z,8504
2017-05-12T07:27:15.470Z,9528
2017-05-12T07:27:56.018Z,8564
2017-05-12T07:30:15.891Z,7784
2017-05-12T07:30:56.241Z,7608
2017-05-12T07:31:36.759Z,7364
2017-05-12T07:32:17.314Z,7332
2017-05-12T07:32:57.729Z,7660
2017-05-12T07:33:38.204Z,8048
2017-05-12T07:34:18.700Z,8212
2017-05-12T07:34:59.226Z,8772
2017-05-12T07:35:39.688Z,9092
2017-05-12T07:36:20.221Z,8784
2017-05-12T07:37:00.654Z,8352
2017-05-12T07:37:41.162Z,8024
2017-05-12T07:38:21.687Z,7472
2017-05-12T07:39:02.160Z,7584
2017-05-12T07:39:42.673Z,7508
2017-05-12T07:40:23.139Z,7444
2017-05-12T07:44:09.633Z,6016
2017-05-12T07:44:50.185Z,6304
2017-05-12T07:45:30.632Z,6276
2017-05-12T07:46:11.160Z,6160
2017-05-12T07:46:51.667Z,6172
2017-05-12T07:47:32.194Z,6264
2017-05-12T07:48:12.831Z,6216
2017-05-12T07:48:53.266Z,6088
2017-05-12T07:49:33.865Z,6228
2017-05-12T07:50:14.322Z,6004
2017-05-12T07:50:54.804Z,6368
2017-05-12T07:51:35.369Z,6456
2017-05-12T07:52:15.953Z,6468
2017-05-12T07:52:56.443Z,6508
2017-05-12T07:53:36.917Z,6536
2017-05-12T07:54:17.523Z,6532
2017-05-12T07:54:57.997Z,6532
2017-05-12T07:55:38.497Z,6432
2017-05-12T07:56:18.995Z,6252
2017-05-12T07:56:59.507Z,6888
2017-05-12T07:57:40.165Z,4916
2017-05-12T07:58:20.685Z,5088
2017-05-12T07:59:01.207Z,5428
2017-05-12T07:59:41.681Z,5748
2017-05-12T08:00:22.199Z,6004
2017-05-12T08:01:02.674Z,5440
2017-05-12T08:01:43.174Z,5504
2017-05-12T08:02:23.703Z,5524
2017-05-12T08:03:04.123Z,5700
2017-05-12T08:03:44.664Z,5380
2017-05-12T08:04:25.175Z,5468
2017-05-12T08:05:05.675Z,5724
2017-05-12T08:05:46.144Z,5652
2017-05-12T08:06:26.683Z,6540
2017-05-12T08:07:07.113Z,5748
2017-05-12T08:07:47.725Z,5644
2017-05-12T08:08:28.202Z,5648
2017-05-12T08:09:08.771Z,5904
2017-05-12T08:09:49.231Z,6404
2017-05-12T08:10:30.691Z,6268
2017-05-12T08:11:11.329Z,6260
2017-05-12T08:11:51.976Z,6752
2017-05-12T08:12:32.419Z,6084
2017-05-12T08:13:12.882Z,6004
2017-05-12T08:13:53.737Z,6288
2017-05-12T08:14:34.264Z,6748
2017-05-12T08:15:14.743Z,7244
2017-05-12T08:15:55.222Z,7172
2017-05-12T08:16:35.670Z,7256
2017-05-12T08:17:16.222Z,7068
2017-05-12T08:17:56.739Z,7128
2017-05-12T08:18:37.183Z,7044
2017-05-12T08:19:17.851Z,7292
2017-05-12T08:19:58.250Z,7460
2017-05-12T08:20:38.834Z,7548
2017-05-12T08:21:19.498Z,7612
2017-05-12T08:21:59.916Z,7524
2017-05-12T08:22:40.615Z,7664
2017-05-12T08:23:21.325Z,7764
2017-05-12T08:24:01.726Z,7808
2017-05-12T08:24:42.253Z,7824
2017-05-12T08:25:22.827Z,7888
2017-05-12T08:26:03.287Z,7956
2017-05-12T08:26:44.048Z,7916
2017-05-12T08:27:24.283Z,7996
2017-05-12T08:28:04.766Z,8184
2017-05-12T08:28:45.568Z,8224
2017-05-12T08:29:25.933Z,8288
2017-05-12T08:30:06.458Z,8460
2017-05-12T08:30:47.009Z,8592
2017-05-12T08:31:27.445Z,8812
2017-05-12T08:32:07.934Z,8904
2017-05-12T08:32:48.410Z,8900
2017-05-12T08:33:28.915Z,8916
2017-05-12T08:35:43.731Z,9468
2017-05-12T08:36:24.433Z,9236
2017-05-12T08:37:04.990Z,9240
2017-05-12T08:37:45.531Z,9284
2017-05-12T08:38:26.006Z,9904
2017-05-12T08:39:06.487Z,9124
2017-05-12T08:39:47.056Z,9076
2017-05-12T08:40:27.536Z,9052
2017-05-12T08:41:08.058Z,8988
2017-05-12T08:41:48.523Z,8912
2017-05-12T08:42:29.011Z,8468
2017-05-12T08:43:09.541Z,8288
2017-05-12T08:43:50.138Z,8328
2017-05-12T08:44:30.602Z,8612
2017-05-12T08:45:11.069Z,9044
2017-05-12T08:45:51.553Z,9392
2017-05-12T08:46:32.040Z,9476
2017-05-12T08:47:12.533Z,9412
2017-05-12T08:47:53.018Z,9412
2017-05-12T08:48:33.536Z,9588
2017-05-12T08:49:14.067Z,9740
2017-05-12T08:49:54.532Z,9884
2017-05-12T08:50:35.005Z,10052
2017-05-12T08:53:03.799Z,10156
2017-05-12T08:53:44.457Z,10388
2017-05-12T08:54:24.931Z,10364
2017-05-12T08:55:05.413Z,10168
2017-05-12T08:55:45.972Z,10180
2017-05-12T08:56:26.360Z,9784
2017-05-12T08:57:06.960Z,9364
2017-05-12T08:57:47.514Z,9512
2017-05-12T08:58:28.026Z,9568
2017-05-12T08:59:08.714Z,9504
2017-05-12T08:59:49.187Z,9284
2017-05-12T09:00:29.652Z,9116
2017-05-12T09:01:10.208Z,8836
2017-05-12T09:01:50.661Z,8676
2017-05-12T09:02:31.174Z,8184
2017-05-12T09:03:11.663Z,7752
2017-05-12T09:03:52.161Z,7524
2017-05-12T09:04:32.698Z,8204
2017-05-12T09:05:13.194Z,8228
2017-05-12T09:05:53.668Z,8056
2017-05-12T09:06:34.185Z,7348
2017-05-12T09:07:14.709Z,7188
2017-05-12T09:07:55.267Z,7104
2017-05-12T09:08:35.653Z,6940
2017-05-12T09:09:16.203Z,6832
2017-05-12T09:09:56.700Z,6656
2017-05-12T09:10:37.452Z,6224
2017-05-12T09:11:17.981Z,6292
2017-05-12T09:11:58.440Z,6420
2017-05-12T09:12:38.924Z,6436
2017-05-12T09:13:19.448Z,6660
2017-05-12T09:13:59.897Z,6800
2017-05-12T09:14:40.427Z,6864
2017-05-12T09:15:20.897Z,6692
2017-05-12T09:16:01.603Z,6420
2017-05-12T09:16:42.017Z,6800
2017-05-12T09:17:22.553Z,6708
2017-05-12T09:18:03.098Z,5852
2017-05-12T09:18:43.549Z,6032
2017-05-12T09:19:24.064Z,5812
2017-05-12T09:20:04.768Z,5256
2017-05-12T09:20:45.810Z,4652
2017-05-12T09:21:26.315Z,4504
2017-05-12T09:22:07.169Z,4376
2017-05-12T09:22:47.905Z,4368
2017-05-12T09:23:28.879Z,5028
2017-05-12T09:24:09.638Z,4780
2017-05-12T09:24:50.594Z,5348
2017-05-12T09:25:31.451Z,5844
2017-05-12T09:26:11.995Z,6052
2017-05-12T09:26:53.093Z,6096
2017-05-12T09:27:33.814Z,6036
2017-05-12T09:28:14.619Z,5812
2017-05-12T09:28:55.328Z,5976
2017-05-12T09:29:35.901Z,6004
2017-05-12T09:30:16.311Z,5704
2017-05-12T09:30:56.897Z,5700
2017-05-12T09:31:37.549Z,5768
2017-05-12T09:32:17.946Z,5640
2017-05-12T09:32:58.451Z,5304
2017-05-12T09:33:39.343Z,5076
2017-05-12T09:34:19.698Z,4952
2017-05-12T09:35:00.199Z,4820
2017-05-12T09:35:40.727Z,4688
2017-05-12T09:36:21.208Z,4536
2017-05-12T09:37:01.679Z,4372
2017-05-12T09:37:42.190Z,4240
2017-05-12T09:38:22.654Z,4152
2017-05-12T09:39:03.138Z,4132
2017-05-12T09:39:43.703Z,4164
2017-05-12T09:40:24.117Z,4312
2017-05-12T09:41:04.575Z,4572
2017-05-12T09:41:45.084Z,4896
2017-05-12T09:42:25.641Z,5012
2017-05-12T09:43:06.054Z,5028
2017-05-12T09:43:46.578Z,5132
2017-05-12T09:44:27.063Z,5008
2017-05-12T09:45:07.582Z,4944
2017-05-12T09:45:48.110Z,5036
2017-05-12T09:46:28.578Z,5252
2017-05-12T09:47:09.235Z,5320
2017-05-12T09:47:49.723Z,5548
2017-05-12T09:48:30.241Z,5572
2017-05-12T09:49:10.716Z,5700
2017-05-12T09:49:51.162Z,5928
2017-05-12T09:50:31.663Z,5968
2017-05-12T09:51:12.153Z,6164
2017-05-12T09:51:53.070Z,6456
2017-05-12T09:52:33.992Z,6748
2017-05-12T09:53:14.464Z,7040
2017-05-12T09:53:55.102Z,7112
2017-05-12T09:54:35.908Z,7364
2017-05-12T09:55:17.137Z,7348
2017-05-12T09:55:57.737Z,7208
2017-05-12T09:56:38.493Z,6920
2017-05-12T09:57:19.399Z,6664
2017-05-12T09:58:00.588Z,6404
2017-05-12T10:00:32.249Z,5972
2017-05-12T10:02:52.514Z,5016
2017-05-12T10:03:33.295Z,5216
2017-05-12T10:04:13.840Z,4728
2017-05-12T10:04:54.354Z,4044
2017-05-12T10:05:36.543Z,4180
2017-05-12T10:06:17.033Z,4912
2017-05-12T10:06:59.277Z,4996
2017-05-12T10:07:39.844Z,5656
2017-05-12T10:08:20.324Z,5624
2017-05-12T10:09:00.930Z,5568
2017-05-12T10:09:41.403Z,5476
2017-05-12T10:10:21.905Z,5400
2017-05-12T10:11:02.443Z,5248
2017-05-12T10:11:42.965Z,5252